Time;durP1;ratioP1;P1;durP2;ratioP2;P2;SDS_P1;SDS_P2;PMS_P1;PMS_P2;Temp;Humidity;BMP_temperature;BMP_pressure;BME280_temperature;BME280_humidity;BME280_pressure;Samples;Min_cycle;Max_cycle;Signal;HPM_P1;HPM_P2
2022/01/13 00:01:17;;;;;;;;;;;;;;;1.27;100.00;104212.78;5085914;28;20668;-73
2022/01/13 00:03:42;;;;;;;;;;;;;;;1.28;100.00;104209.56;5084242;28;19927;-71
2022/01/13 00:06:07;;;;;;;;;;;;;;;1.22;100.00;104218.97;5084285;28;19928;-71
2022/01/13 00:08:33;;;;;;;;;;;;;;;1.20;100.00;104220.38;5084506;28;19920;-72
2022/01/13 00:10:58;;;;;;;;;;;;;;;1.21;100.00;104211.16;5081378;28;19920;-71
2022/01/13 00:13:30;;;;;;;;;;;;;;;1.23;100.00;104215.69;5086573;28;19921;-71
2022/01/13 00:18:40;;;;;;;;;;;;;;;1.24;100.00;104216.59;5084920;28;19924;-71
2022/01/13 00:23:53;;;;;;;;;;;;;;;1.25;100.00;104215.88;5085173;28;19962;-72
2022/01/13 00:26:26;;;;;;;;;;;;;;;1.22;100.00;104218.06;5079270;28;20552;-72
2022/01/13 00:28:52;;;;;;;;;;;;;;;1.21;100.00;104223.81;5084297;28;19942;-72
2022/01/13 00:31:23;;;;;;;;;;;;;;;1.19;100.00;104227.81;5085259;28;20356;-72
2022/01/13 00:33:51;;;;;;;;;;;;;;;1.11;100.00;104228.53;5083496;28;19924;-72
2022/01/13 00:36:16;;;;;;;;;;;;;;;1.15;100.00;104225.63;5102314;28;20469;-72
2022/01/13 00:38:42;;;;;;;;;;;;;;;1.12;100.00;104225.28;5102564;28;20124;-72
2022/01/13 00:41:07;;;;;;;;;;;;;;;1.09;100.00;104225.78;5104148;28;20022;-72
2022/01/13 00:43:36;;;;;;;;;;;;;;;1.10;100.00;104216.59;5086692;28;19943;-72
2022/01/13 00:46:02;;;;;;;;;;;;;;;1.08;100.00;104207.16;5108738;27;19919;-74
2022/01/13 00:48:27;;;;;;;;;;;;;;;1.07;100.00;104205.34;5099166;28;20338;-72
2022/01/13 00:50:52;;;;;;;;;;;;;;;1.10;100.00;104201.38;5064377;28;19920;-71
2022/01/13 00:53:18;;;;;;;;;;;;;;;1.11;100.00;104198.13;5100275;28;19924;-71
2022/01/13 00:56:04;;;;;;;;;;;;;;;1.12;100.00;104195.78;5103853;28;19958;-71
2022/01/13 00:58:30;;;;;;;;;;;;;;;1.10;100.00;104187.09;5103450;28;19935;-71
2022/01/13 01:00:55;;;;;;;;;;;;;;;1.11;100.00;104186.34;5101297;28;19916;-71
2022/01/13 01:03:21;;;;;;;;;;;;;;;1.13;100.00;104184.00;5101410;28;19923;-71
2022/01/13 01:05:46;;;;;;;;;;;;;;;1.12;100.00;104184.72;5088478;28;20014;-72
2022/01/13 01:08:12;;;;;;;;;;;;;;;1.14;100.00;104189.25;5087265;28;19927;-71
2022/01/13 01:10:38;;;;;;;;;;;;;;;1.19;100.00;104197.41;5085297;28;19919;-71
2022/01/13 01:13:11;;;;;;;;;;;;;;;1.14;100.00;104195.94;5103595;28;19928;-71
2022/01/13 01:15:36;;;;;;;;;;;;;;;1.11;100.00;104196.50;5105489;28;20030;-71
2022/01/13 01:18:12;;;;;;;;;;;;;;;1.11;100.00;104196.50;5103854;28;20410;-72
2022/01/13 01:20:47;;;;;;;;;;;;;;;1.13;100.00;104191.59;5099750;28;19930;-71
2022/01/13 01:23:17;;;;;;;;;;;;;;;1.12;100.00;104189.78;5104334;28;19920;-72
2022/01/13 01:25:58;;;;;;;;;;;;;;;1.14;100.00;104194.31;5102451;28;19953;-71
2022/01/13 01:28:32;;;;;;;;;;;;;;;1.08;100.00;104199.56;5101917;28;19972;-72
2022/01/13 01:30:58;;;;;;;;;;;;;;;1.10;100.00;104199.75;5103981;28;20030;-71
2022/01/13 01:33:23;;;;;;;;;;;;;;;1.11;100.00;104196.50;5091044;28;20010;-74
2022/01/13 01:35:48;;;;;;;;;;;;;;;1.10;100.00;104193.78;5105123;28;19920;-71
2022/01/13 01:38:14;;;;;;;;;;;;;;;1.12;100.00;104197.41;5089290;28;19924;-71
2022/01/13 01:40:39;;;;;;;;;;;;;;;1.14;100.00;104198.47;5101775;28;19935;-72
2022/01/13 01:43:04;;;;;;;;;;;;;;;1.15;100.00;104197.75;5103971;28;19974;-71
2022/01/13 01:45:33;;;;;;;;;;;;;;;1.18;100.00;104201.56;5102394;28;19942;-72
2022/01/13 01:48:03;;;;;;;;;;;;;;;1.13;100.00;104189.97;5087988;28;19949;-72
2022/01/13 01:50:35;;;;;;;;;;;;;;;1.11;100.00;104193.97;5099687;28;19965;-72
2022/01/13 01:53:00;;;;;;;;;;;;;;;1.12;100.00;104199.94;5103316;28;20076;-72
2022/01/13 01:55:25;;;;;;;;;;;;;;;1.11;100.00;104193.06;5104766;28;20642;-72
2022/01/13 01:57:51;;;;;;;;;;;;;;;1.07;100.00;104192.69;5105673;28;19926;-72
2022/01/13 02:00:18;;;;;;;;;;;;;;;1.05;100.00;104186.53;5090344;28;19922;-72
2022/01/13 02:02:44;;;;;;;;;;;;;;;1.04;100.00;104182.19;5091288;28;20052;-72
2022/01/13 02:05:09;;;;;;;;;;;;;;;1.05;100.00;104185.63;5094479;28;20423;-72
2022/01/13 02:07:35;;;;;;;;;;;;;;;1.04;100.00;104183.81;5104087;28;20406;-72
2022/01/13 02:10:01;;;;;;;;;;;;;;;1.02;100.00;104188.69;5084641;28;19916;-73
2022/01/13 02:12:41;;;;;;;;;;;;;;;1.04;100.00;104193.97;5102986;28;19928;-72
2022/01/13 02:15:29;;;;;;;;;;;;;;;1.07;100.00;104187.59;5102551;28;20403;-73
2022/01/13 02:17:53;;;;;;;;;;;;;;;1.14;100.00;104190.88;5105269;28;19923;-74
2022/01/13 02:20:19;;;;;;;;;;;;;;;1.10;100.00;104191.25;5100730;28;19930;-72
2022/01/13 02:22:44;;;;;;;;;;;;;;;1.12;100.00;104193.22;5103083;28;19916;-72
2022/01/13 02:25:12;;;;;;;;;;;;;;;1.12;100.00;104195.78;5100647;28;19920;-72
2022/01/13 02:27:37;;;;;;;;;;;;;;;1.11;100.00;104198.13;5084559;28;19928;-72
2022/01/13 02:30:02;;;;;;;;;;;;;;;1.20;100.00;104194.13;5105669;28;19920;-73
2022/01/13 02:32:28;;;;;;;;;;;;;;;1.14;100.00;104185.81;5102204;28;20421;-72
2022/01/13 02:34:53;;;;;;;;;;;;;;;1.10;100.00;104191.25;5105982;28;19925;-72
2022/01/13 02:37:18;;;;;;;;;;;;;;;1.11;100.00;104195.59;5103736;28;20296;-72
2022/01/13 02:39:43;;;;;;;;;;;;;;;1.11;100.00;104191.44;5091896;28;19927;-72
2022/01/13 02:42:14;;;;;;;;;;;;;;;1.12;100.00;104190.69;5106642;28;20087;-73
2022/01/13 02:44:49;;;;;;;;;;;;;;;1.16;100.00;104192.88;5106629;27;19981;-72
2022/01/13 02:47:33;;;;;;;;;;;;;;;1.12;100.00;104187.25;5105917;28;20434;-73
2022/01/13 02:49:59;;;;;;;;;;;;;;;1.18;100.00;104185.47;5093309;28;20048;-73
2022/01/13 02:52:24;;;;;;;;;;;;;;;1.22;100.00;104183.47;5108380;27;20015;-73
2022/01/13 02:54:49;;;;;;;;;;;;;;;1.15;100.00;104188.50;5101839;28;19919;-72
2022/01/13 02:57:15;;;;;;;;;;;;;;;1.16;100.00;104186.91;5076446;28;19927;-73
2022/01/13 02:59:40;;;;;;;;;;;;;;;1.16;100.00;104185.28;5107462;28;20016;-72
2022/01/13 03:02:05;;;;;;;;;;;;;;;1.13;100.00;104189.97;5091478;28;19920;-72
2022/01/13 03:04:30;;;;;;;;;;;;;;;1.16;100.00;104190.34;5095564;28;19919;-72
2022/01/13 03:06:56;;;;;;;;;;;;;;;1.16;100.00;104191.97;5090940;28;19923;-72
2022/01/13 03:09:21;;;;;;;;;;;;;;;1.19;100.00;104193.22;5091365;28;19933;-72
2022/01/13 03:11:47;;;;;;;;;;;;;;;1.12;100.00;104187.25;5102806;28;19973;-72
2022/01/13 03:14:13;;;;;;;;;;;;;;;1.08;100.00;104181.81;5105186;28;19947;-72
2022/01/13 03:16:39;;;;;;;;;;;;;;;1.10;100.00;104184.56;5105537;28;19971;-72
2022/01/13 03:19:04;;;;;;;;;;;;;;;1.11;100.00;104190.53;5107022;28;19923;-72
2022/01/13 03:21:30;;;;;;;;;;;;;;;1.12;100.00;104192.31;5106009;28;20039;-73
2022/01/13 03:23:55;;;;;;;;;;;;;;;1.11;100.00;104188.91;5090396;28;19923;-72
2022/01/13 03:26:21;;;;;;;;;;;;;;;1.22;100.00;104180.03;5104427;28;19920;-73
2022/01/13 03:28:51;;;;;;;;;;;;;;;1.13;100.00;104181.47;5104938;28;19920;-72
2022/01/13 03:31:21;;;;;;;;;;;;;;;1.16;100.00;104176.78;5107427;28;19924;-73
2022/01/13 03:33:46;;;;;;;;;;;;;;;1.15;100.00;104177.47;5104526;28;19916;-72
2022/01/13 03:36:13;;;;;;;;;;;;;;;1.28;100.00;104163.00;5105497;28;20480;-72
2022/01/13 03:38:38;;;;;;;;;;;;;;;1.22;100.00;104164.81;5107099;28;19973;-72
2022/01/13 03:41:04;;;;;;;;;;;;;;;1.24;100.00;104159.19;5105525;28;20352;-72
2022/01/13 03:43:29;;;;;;;;;;;;;;;1.13;100.00;104159.56;5106289;28;19922;-72
2022/01/13 03:45:55;;;;;;;;;;;;;;;1.11;100.00;104165.19;5078663;28;19928;-73
2022/01/13 03:48:20;;;;;;;;;;;;;;;1.00;100.00;104154.66;5106085;28;19916;-72
2022/01/13 03:50:45;;;;;;;;;;;;;;;1.14;100.00;104157.91;5077132;28;19958;-73
2022/01/13 03:53:17;;;;;;;;;;;;;;;1.15;100.00;104157.19;5093874;28;20368;-72
2022/01/13 03:56:01;;;;;;;;;;;;;;;1.01;100.00;104160.63;5096226;28;19916;-72
2022/01/13 03:58:29;;;;;;;;;;;;;;;1.07;100.00;104156.28;5095246;28;19924;-72
2022/01/13 04:01:13;;;;;;;;;;;;;;;1.03;100.00;104160.09;5106851;28;20463;-72
2022/01/13 04:03:38;;;;;;;;;;;;;;;1.09;100.00;104162.44;5104382;28;19923;-72
2022/01/13 04:06:27;;;;;;;;;;;;;;;1.07;100.00;104162.25;5092981;28;19919;-72
2022/01/13 04:08:53;;;;;;;;;;;;;;;1.17;100.00;104158.31;5102750;28;20006;-72
2022/01/13 04:11:22;;;;;;;;;;;;;;;1.17;100.00;104164.28;5105262;28;19976;-72
2022/01/13 04:13:53;;;;;;;;;;;;;;;1.04;100.00;104161.91;5104009;28;20367;-72
2022/01/13 04:16:24;;;;;;;;;;;;;;;0.99;100.00;104155.38;5098477;28;19932;-72
2022/01/13 04:18:50;;;;;;;;;;;;;;;1.08;100.00;104155.56;5095694;28;19924;-72
2022/01/13 04:21:18;;;;;;;;;;;;;;;1.08;100.00;104153.94;5105243;28;19931;-72
2022/01/13 04:23:44;;;;;;;;;;;;;;;1.11;100.00;104155.94;5104441;28;19962;-72
2022/01/13 04:26:09;;;;;;;;;;;;;;;1.05;100.00;104151.06;5104326;28;20402;-72
2022/01/13 04:28:35;;;;;;;;;;;;;;;1.14;100.00;104163.91;5106022;28;19920;-72
2022/01/13 04:31:01;;;;;;;;;;;;;;;1.06;100.00;104155.38;5090089;28;19959;-72
2022/01/13 04:33:27;;;;;;;;;;;;;;;1.00;100.00;104154.66;5093885;28;19920;-72
2022/01/13 04:35:52;;;;;;;;;;;;;;;0.93;100.00;104149.59;5102785;27;19928;-72
2022/01/13 04:38:17;;;;;;;;;;;;;;;0.89;100.00;104146.50;5102839;28;19923;-72
2022/01/13 04:40:46;;;;;;;;;;;;;;;0.99;100.00;104141.81;5103753;28;20451;-72
2022/01/13 04:43:11;;;;;;;;;;;;;;;0.92;100.00;104140.19;5095350;28;20345;-72
2022/01/13 04:45:37;;;;;;;;;;;;;;;0.93;100.00;104142.00;5105995;28;19916;-72
2022/01/13 04:48:02;;;;;;;;;;;;;;;0.95;100.00;104142.16;5103938;28;20018;-72
2022/01/13 04:50:28;;;;;;;;;;;;;;;0.90;100.00;104148.31;5105503;28;19942;-72
2022/01/13 04:52:53;;;;;;;;;;;;;;;0.87;100.00;104141.25;5105026;28;20035;-72
2022/01/13 04:55:24;;;;;;;;;;;;;;;0.85;100.00;104152.84;5105173;28;20051;-72
2022/01/13 04:57:49;;;;;;;;;;;;;;;0.87;100.00;104142.88;5090473;28;20357;-72
2022/01/13 05:00:15;;;;;;;;;;;;;;;0.84;100.00;104142.50;5093628;28;20014;-74
2022/01/13 05:02:40;;;;;;;;;;;;;;;0.91;100.00;104148.50;5092631;28;19954;-71
2022/01/13 05:05:06;;;;;;;;;;;;;;;0.88;100.00;104147.22;5109307;27;20379;-72
2022/01/13 05:07:34;;;;;;;;;;;;;;;0.87;100.00;104147.97;5102040;28;20373;-72
2022/01/13 05:09:59;;;;;;;;;;;;;;;0.86;100.00;104152.13;5105690;28;19923;-72
2022/01/13 05:12:30;;;;;;;;;;;;;;;0.86;100.00;104142.00;5103371;28;20315;-71
2022/01/13 05:15:02;;;;;;;;;;;;;;;0.88;100.00;104152.28;5102988;28;19930;-71
2022/01/13 05:17:58;;;;;;;;;;;;;;;0.91;100.00;104153.59;5101306;28;19924;-72
2022/01/13 05:20:22;;;;;;;;;;;;;;;0.91;100.00;104166.25;5101934;28;19970;-71
2022/01/13 05:22:48;;;;;;;;;;;;;;;0.95;100.00;104157.38;5105448;28;19920;-71
2022/01/13 05:25:14;;;;;;;;;;;;;;;0.89;100.00;104161.69;5105895;28;19919;-72
2022/01/13 05:27:39;;;;;;;;;;;;;;;1.10;100.00;104155.78;5089983;28;19936;-71
2022/01/13 05:30:05;;;;;;;;;;;;;;;0.88;100.00;104153.19;5092409;28;19934;-71
2022/01/13 05:32:30;;;;;;;;;;;;;;;0.78;100.00;104152.81;5092924;28;19926;-72
2022/01/13 05:34:55;;;;;;;;;;;;;;;0.80;100.00;104156.47;5104720;28;20513;-71
2022/01/13 05:37:20;;;;;;;;;;;;;;;0.78;100.00;104148.66;5096467;28;19928;-71
2022/01/13 05:39:46;;;;;;;;;;;;;;;0.77;100.00;104148.47;5089630;28;19916;-70
2022/01/13 05:42:11;;;;;;;;;;;;;;;0.73;100.00;104148.84;5091749;28;19919;-71
2022/01/13 05:44:39;;;;;;;;;;;;;;;0.76;100.00;104146.66;5091657;28;19919;-72
2022/01/13 05:47:05;;;;;;;;;;;;;;;0.74;100.00;104143.06;5103380;28;19928;-72
2022/01/13 05:49:30;;;;;;;;;;;;;;;0.75;100.00;104149.94;5103033;28;20260;-72
2022/01/13 05:51:56;;;;;;;;;;;;;;;0.79;100.00;104155.56;5084787;28;19927;-72
2022/01/13 05:54:21;;;;;;;;;;;;;;;0.86;100.00;104154.66;5089776;28;19974;-72
2022/01/13 05:56:46;;;;;;;;;;;;;;;0.89;100.00;104159.16;5104956;28;19931;-71
2022/01/13 05:59:12;;;;;;;;;;;;;;;0.82;100.00;104160.06;5089619;28;20403;-71
2022/01/13 06:01:37;;;;;;;;;;;;;;;0.86;100.00;104148.69;5089091;28;19920;-71
2022/01/13 06:04:02;;;;;;;;;;;;;;;0.79;100.00;104150.50;5101607;28;20384;-72
2022/01/13 06:06:28;;;;;;;;;;;;;;;0.74;100.00;104143.06;5100454;28;19924;-72
2022/01/13 06:08:53;;;;;;;;;;;;;;;0.74;100.00;104145.59;5089092;28;20391;-72
2022/01/13 06:11:22;;;;;;;;;;;;;;;0.76;100.00;104149.19;5092456;28;20014;-72
2022/01/13 06:13:47;;;;;;;;;;;;;;;0.79;100.00;104150.50;5077988;28;20619;-72
2022/01/13 06:16:12;;;;;;;;;;;;;;;0.79;100.00;104147.97;5106365;28;19919;-73
2022/01/13 06:18:38;;;;;;;;;;;;;;;0.77;100.00;104148.47;5093598;28;19927;-72
2022/01/13 06:21:03;;;;;;;;;;;;;;;0.83;100.00;104150.84;5094651;28;19927;-72
2022/01/13 06:23:28;;;;;;;;;;;;;;;0.79;100.00;104147.97;5107761;28;20376;-72
2022/01/13 06:25:54;;;;;;;;;;;;;;;0.84;100.00;104152.63;5076078;28;19958;-72
2022/01/13 06:28:19;;;;;;;;;;;;;;;0.82;100.00;104149.94;5095524;27;19972;-72
2022/01/13 06:30:44;;;;;;;;;;;;;;;0.84;100.00;104156.06;5106146;28;19927;-72
2022/01/13 06:33:09;;;;;;;;;;;;;;;0.83;100.00;104154.28;5102122;28;20308;-73
2022/01/13 06:35:36;;;;;;;;;;;;;;;0.85;100.00;104152.84;5094939;28;19979;-72
2022/01/13 06:38:01;;;;;;;;;;;;;;;0.88;100.00;104147.22;5093364;28;19986;-72
2022/01/13 06:40:26;;;;;;;;;;;;;;;0.93;100.00;104149.59;5106337;28;20272;-72
2022/01/13 06:42:52;;;;;;;;;;;;;;;0.96;100.00;104144.88;5104234;28;19968;-72
2022/01/13 06:45:17;;;;;;;;;;;;;;;1.00;100.00;104153.75;5088328;28;19922;-72
2022/01/13 06:47:42;;;;;;;;;;;;;;;0.93;100.00;104151.22;5120221;27;19950;-72
2022/01/13 06:50:09;;;;;;;;;;;;;;;0.89;100.00;104142.34;5105428;28;19915;-72
2022/01/13 06:52:34;;;;;;;;;;;;;;;0.89;100.00;104143.97;5107478;28;20379;-70
2022/01/13 06:54:59;;;;;;;;;;;;;;;0.89;100.00;104147.41;5089125;28;19920;-72
2022/01/13 06:57:24;;;;;;;;;;;;;;;0.92;100.00;104145.25;5121275;27;20285;-73
2022/01/13 06:59:50;;;;;;;;;;;;;;;0.91;100.00;104139.97;5087196;28;19934;-72
2022/01/13 07:02:15;;;;;;;;;;;;;;;0.92;100.00;104150.31;5089611;28;19928;-72
2022/01/13 07:04:42;;;;;;;;;;;;;;;0.92;100.00;104149.41;5105441;27;19935;-72
2022/01/13 07:07:08;;;;;;;;;;;;;;;0.94;100.00;104147.97;5107764;27;19920;-72
2022/01/13 07:09:33;;;;;;;;;;;;;;;0.92;100.00;104150.31;5088632;28;19926;-72
2022/01/13 07:11:58;;;;;;;;;;;;;;;0.94;100.00;104143.78;5069622;27;19924;-72
2022/01/13 07:14:24;;;;;;;;;;;;;;;0.94;100.00;104138.72;5102201;27;19930;-72
2022/01/13 07:16:49;;;;;;;;;;;;;;;0.93;100.00;104139.47;5101321;27;19920;-73
2022/01/13 07:19:15;;;;;;;;;;;;;;;0.91;100.00;104135.84;5104357;27;19927;-72
2022/01/13 07:21:41;;;;;;;;;;;;;;;0.95;100.00;104140.53;5085323;28;19959;-72
2022/01/13 07:24:06;;;;;;;;;;;;;;;0.96;100.00;104136.38;5103941;27;19916;-72
2022/01/13 07:26:31;;;;;;;;;;;;;;;0.97;100.00;104138.16;5083280;27;20341;-73
2022/01/13 07:28:57;;;;;;;;;;;;;;;0.95;100.00;104140.53;5082472;28;19976;-72
2022/01/13 07:31:22;;;;;;;;;;;;;;;0.98;100.00;104145.97;5103453;27;19927;-72
2022/01/13 07:33:47;;;;;;;;;;;;;;;0.98;100.00;104151.06;5084897;28;19927;-72
2022/01/13 07:36:13;;;;;;;;;;;;;;;1.01;100.00;104147.97;5102204;27;19946;-72
2022/01/13 07:38:38;;;;;;;;;;;;;;;1.07;100.00;104146.16;5097796;27;20674;-71
2022/01/13 07:41:03;;;;;;;;;;;;;;;1.02;100.00;104144.69;5115397;27;19935;-72
2022/01/13 07:43:30;;;;;;;;;;;;;;;1.03;100.00;104143.97;5083040;27;19928;-72
2022/01/13 07:45:56;;;;;;;;;;;;;;;1.04;100.00;104138.22;5085058;27;19994;-72
2022/01/13 07:48:21;;;;;;;;;;;;;;;1.05;100.00;104138.38;5115133;27;20030;-72
2022/01/13 07:50:47;;;;;;;;;;;;;;;1.07;100.00;104144.53;5104766;27;19927;-71
2022/01/13 07:53:12;;;;;;;;;;;;;;;1.11;100.00;104145.81;5101555;27;20099;-70
2022/01/13 07:55:38;;;;;;;;;;;;;;;1.16;100.00;104139.66;5083689;28;20095;-71
2022/01/13 07:58:03;;;;;;;;;;;;;;;1.10;100.00;104153.25;5099764;27;19924;-71
2022/01/13 08:00:28;;;;;;;;;;;;;;;1.09;100.00;104154.84;5084847;28;19920;-71
2022/01/13 08:02:53;;;;;;;;;;;;;;;1.05;100.00;104162.81;5103177;27;20380;-70
2022/01/13 08:05:19;;;;;;;;;;;;;;;1.10;100.00;104159.22;5079851;28;19949;-72
2022/01/13 08:07:44;;;;;;;;;;;;;;;1.09;100.00;104154.84;5098366;27;19926;-71
2022/01/13 08:10:09;;;;;;;;;;;;;;;1.12;100.00;104162.81;5102540;27;19927;-70
2022/01/13 08:12:35;;;;;;;;;;;;;;;1.15;100.00;104170.78;5088259;28;19992;-71
2022/01/13 08:15:01;;;;;;;;;;;;;;;1.15;100.00;104169.88;5115319;27;20010;-71
2022/01/13 08:20:10;;;;;;;;;;;;;;;1.18;100.00;104165.19;5102387;27;19926;-71
2022/01/13 08:22:36;;;;;;;;;;;;;;;1.19;100.00;104167.88;5103123;27;19923;-72
2022/01/13 08:25:01;;;;;;;;;;;;;;;1.22;100.00;104164.81;5100702;27;19923;-72
2022/01/13 08:27:27;;;;;;;;;;;;;;;1.24;100.00;104171.88;5114503;27;19928;-71
2022/01/13 08:29:52;;;;;;;;;;;;;;;1.27;100.00;104172.22;5101766;27;20043;-71
2022/01/13 08:32:18;;;;;;;;;;;;;;;1.29;100.00;104177.50;5102662;27;19920;-71
2022/01/13 08:34:43;;;;;;;;;;;;;;;1.35;100.00;104178.22;5103310;27;19919;-72
2022/01/13 08:37:09;;;;;;;;;;;;;;;1.30;100.00;104191.97;5115199;27;19930;-71
2022/01/13 08:39:40;;;;;;;;;;;;;;;1.29;100.00;104186.00;5101767;27;19924;-70
2022/01/13 08:42:05;;;;;;;;;;;;;;;1.31;100.00;104188.72;5102876;28;20445;-70
2022/01/13 08:44:31;;;;;;;;;;;;;;;1.34;100.00;104192.53;5101618;27;19926;-71
2022/01/13 08:46:56;;;;;;;;;;;;;;;1.39;100.00;104182.91;5103455;27;19938;-70
2022/01/13 08:49:21;;;;;;;;;;;;;;;1.41;100.00;104188.19;5103196;27;20060;-70
2022/01/13 08:51:47;;;;;;;;;;;;;;;1.44;100.00;104180.91;5099504;27;19923;-70
2022/01/13 08:54:12;;;;;;;;;;;;;;;1.46;100.00;104185.47;5104413;27;19953;-71
2022/01/13 08:56:38;;;;;;;;;;;;;;;1.52;100.00;104190.34;5101375;27;20524;-70
2022/01/13 08:59:04;;;;;;;;;;;;;;;1.51;100.00;104191.97;5099898;27;19916;-70
2022/01/13 09:01:30;;;;;;;;;;;;;;;1.53;100.00;104194.69;5101131;27;19979;-72
2022/01/13 09:03:55;;;;;;;;;;;;;;;1.55;100.00;104189.06;5088617;28;19945;-70
2022/01/13 09:06:20;;;;;;;;;;;;;;;1.59;100.00;104201.41;5085821;27;19935;-72
2022/01/13 09:08:46;;;;;;;;;;;;;;;1.61;100.00;104193.94;5101286;27;19934;-70
2022/01/13 09:11:11;;;;;;;;;;;;;;;1.67;100.00;104193.78;5101300;27;20057;-71
2022/01/13 09:13:37;;;;;;;;;;;;;;;1.70;100.00;104194.13;5085133;28;19950;-69
2022/01/13 09:16:04;;;;;;;;;;;;;;;1.75;100.00;104198.09;5104673;28;19915;-71
2022/01/13 09:18:34;;;;;;;;;;;;;;;1.75;100.00;104203.16;5102228;27;20384;-71
2022/01/13 09:20:59;;;;;;;;;;;;;;;1.78;100.00;104204.44;5103635;28;20018;-72
2022/01/13 09:23:25;;;;;;;;;;;;;;;1.82;100.00;104200.63;5103430;28;20416;-71
2022/01/13 09:25:50;;;;;;;;;;;;;;;1.86;100.00;104195.19;5086004;28;20025;-71
2022/01/13 09:28:15;;;;;;;;;;;;;;;1.90;100.00;104196.47;5101968;27;19931;-71
2022/01/13 09:30:41;;;;;;;;;;;;;;;1.91;100.00;104194.09;5096590;28;19928;-71
2022/01/13 09:33:06;;;;;;;;;;;;;;;1.98;100.00;104203.31;5101881;28;19915;-72
2022/01/13 09:35:32;;;;;;;;;;;;;;;1.97;100.00;104194.81;5083609;28;19976;-73
2022/01/13 09:37:57;;;;;;;;;;;;;;;2.04;100.00;104191.34;5084819;28;19919;-71
2022/01/13 09:40:23;;;;;;;;;;;;;;;2.04;100.00;104189.69;5104691;28;19926;-74
2022/01/13 09:42:48;;;;;;;;;;;;;;;2.12;100.00;104191.50;5085334;28;20476;-72
2022/01/13 09:45:14;;;;;;;;;;;;;;;1.99;100.00;104202.59;5106454;27;20446;-71
2022/01/13 09:47:40;;;;;;;;;;;;;;;2.08;100.00;104203.66;5107977;27;19927;-72
2022/01/13 09:50:10;;;;;;;;;;;;;;;2.01;100.00;104194.44;5090262;27;19916;-72
2022/01/13 09:52:38;;;;;;;;;;;;;;;2.08;100.00;104199.50;5108377;27;20394;-72
2022/01/13 09:55:04;;;;;;;;;;;;;;;2.09;100.00;104200.38;5105767;27;19919;-72
2022/01/13 09:57:30;;;;;;;;;;;;;;;2.10;100.00;104202.19;5089507;27;20026;-72
2022/01/13 09:59:58;;;;;;;;;;;;;;;2.19;100.00;104202.38;5102682;27;20034;-71
2022/01/13 10:02:23;;;;;;;;;;;;;;;2.24;100.00;104207.22;5108043;27;19964;-71
2022/01/13 10:04:50;;;;;;;;;;;;;;;2.24;100.00;104201.22;5106437;27;19937;-72
2022/01/13 10:07:18;;;;;;;;;;;;;;;2.24;100.00;104204.69;5104513;27;19995;-72
2022/01/13 10:09:53;;;;;;;;;;;;;;;2.24;100.00;104203.78;5086906;28;19924;-72
2022/01/13 10:12:27;;;;;;;;;;;;;;;2.21;100.00;104200.91;5107701;27;20333;-73
2022/01/13 10:17:25;;;;;;;;;;;;;;;2.27;100.00;104214.31;5106452;27;20437;-72
2022/01/13 10:19:55;;;;;;;;;;;;;;;2.32;100.00;104205.59;5117497;27;19924;-73
2022/01/13 10:22:23;;;;;;;;;;;;;;;2.32;100.00;104197.97;5114967;27;20015;-73
2022/01/13 10:24:53;;;;;;;;;;;;;;;2.41;100.00;104202.44;5120092;27;20314;-74
2022/01/13 10:27:20;;;;;;;;;;;;;;;2.50;100.00;104202.59;5100585;27;19939;-71
2022/01/13 10:29:47;;;;;;;;;;;;;;;2.47;100.00;104197.16;5085314;27;20386;-71
2022/01/13 10:32:14;;;;;;;;;;;;;;;2.43;100.00;104200.09;5103496;27;20014;-73
2022/01/13 10:34:40;;;;;;;;;;;;;;;2.44;100.00;104193.38;5088392;27;20010;-74
2022/01/13 10:37:11;;;;;;;;;;;;;;;2.47;100.00;104196.25;5107191;27;19924;-73
2022/01/13 10:39:43;;;;;;;;;;;;;;;2.48;100.00;104193.88;5105363;27;19930;-73
2022/01/13 10:42:45;;;;;;;;;;;;;;;2.54;100.00;104192.03;5084972;27;19931;-73
2022/01/13 10:45:07;;;;;;;;;;;;;;;2.71;100.00;104191.41;5103734;27;20392;-74
2022/01/13 10:47:32;;;;;;;;;;;;;;;2.64;100.00;104196.53;5106242;27;20376;-74
2022/01/13 10:49:59;;;;;;;;;;;;;;;2.64;100.00;104189.81;5103716;27;19916;-74
2022/01/13 10:52:27;;;;;;;;;;;;;;;2.62;100.00;104188.75;5100171;27;20429;-74
2022/01/13 10:55:12;;;;;;;;;;;;;;;2.65;100.00;104193.25;5085041;27;19923;-74
2022/01/13 10:57:38;;;;;;;;;;;;;;;2.70;100.00;104184.53;5107256;27;20447;-73
2022/01/13 11:00:05;;;;;;;;;;;;;;;2.76;100.00;104185.22;5101863;27;19980;-74
2022/01/13 11:02:31;;;;;;;;;;;;;;;2.80;100.00;104172.13;5097977;27;19974;-74
2022/01/13 11:05:00;;;;;;;;;;;;;;;2.87;100.00;104171.19;5115848;27;19919;-73
2022/01/13 11:07:27;;;;;;;;;;;;;;;2.91;100.00;104176.78;5085069;27;19919;-74
2022/01/13 11:09:52;;;;;;;;;;;;;;;2.93;100.00;104180.38;5104846;27;20624;-72
2022/01/13 11:12:26;;;;;;;;;;;;;;;2.96;100.00;104174.72;5106367;27;19923;-74
2022/01/13 11:14:59;;;;;;;;;;;;;;;2.95;100.00;104170.38;5105254;27;19943;-73
2022/01/13 11:17:24;;;;;;;;;;;;;;;3.00;100.00;104168.34;5103519;27;19924;-74
2022/01/13 11:19:49;;;;;;;;;;;;;;;3.05;100.00;104165.59;5106952;27;19976;-75
2022/01/13 11:22:15;;;;;;;;;;;;;;;3.12;100.00;104157.00;5088126;27;19928;-75
2022/01/13 11:24:44;;;;;;;;;;;;;;;3.09;100.00;104159.19;5106464;27;20328;-75
2022/01/13 11:27:10;;;;;;;;;;;;;;;3.11;100.00;104158.66;5109270;27;19924;-75
2022/01/13 11:29:35;;;;;;;;;;;;;;;3.15;100.00;104159.88;5091770;27;19923;-75
2022/01/13 11:32:01;;;;;;;;;;;;;;;3.11;100.00;104158.66;5104176;27;19922;-75
2022/01/13 11:34:27;;;;;;;;;;;;;;;3.09;100.00;104155.00;5106794;27;19934;-76
2022/01/13 11:36:53;;;;;;;;;;;;;;;3.08;100.00;104150.66;5104990;27;20311;-76
2022/01/13 11:39:34;;;;;;;;;;;;;;;3.13;100.00;104146.09;5089618;28;20391;-75
2022/01/13 11:42:00;;;;;;;;;;;;;;;3.19;100.00;104139.16;5087228;28;20296;-76
2022/01/13 11:44:25;;;;;;;;;;;;;;;3.30;100.00;104147.97;5103161;27;20367;-76
2022/01/13 11:46:51;;;;;;;;;;;;;;;3.24;100.00;104145.63;5104607;27;19923;-76
2022/01/13 11:49:23;;;;;;;;;;;;;;;3.17;100.00;104149.16;5104928;27;20080;-75
2022/01/13 11:52:02;;;;;;;;;;;;;;;3.14;100.00;104145.34;5087939;27;19919;-74
2022/01/13 11:54:33;;;;;;;;;;;;;;;3.12;100.00;104144.28;5101551;27;20379;-74
2022/01/13 11:57:18;;;;;;;;;;;;;;;3.19;100.00;104146.78;5104257;27;20360;-74
2022/01/13 12:00:12;;;;;;;;;;;;;;;3.23;100.00;104144.75;5105385;27;19926;-75
2022/01/13 12:02:41;;;;;;;;;;;;;;;3.29;100.00;104147.06;5085263;28;19916;-75
2022/01/13 12:05:20;;;;;;;;;;;;;;;3.30;100.00;104143.78;5103321;27;21043;-75
2022/01/13 12:07:47;;;;;;;;;;;;;;;3.31;100.00;104147.22;5116755;27;19919;-75
2022/01/13 12:10:25;;;;;;;;;;;;;;;3.39;100.00;104148.94;5085194;28;19930;-75
2022/01/13 12:12:54;;;;;;;;;;;;;;;3.32;100.00;104143.94;5081810;27;20341;-76
2022/01/13 12:15:20;;;;;;;;;;;;;;;3.29;100.00;104143.63;5102233;27;19915;-75
2022/01/13 12:17:50;;;;;;;;;;;;;;;3.34;100.00;104134.84;5085997;27;20288;-73
2022/01/13 12:20:22;;;;;;;;;;;;;;;3.31;100.00;104142.13;5086885;28;19968;-74
2022/01/13 12:23:15;;;;;;;;;;;;;;;3.24;100.00;104132.94;5080940;28;19930;-75
2022/01/13 12:25:40;;;;;;;;;;;;;;;3.21;100.00;104130.94;5099766;27;19928;-76
2022/01/13 12:28:12;;;;;;;;;;;;;;;3.24;100.00;104130.38;5102623;28;19943;-74
2022/01/13 12:30:38;;;;;;;;;;;;;;;3.29;100.00;104123.28;5103115;27;19916;-75
2022/01/13 12:33:06;;;;;;;;;;;;;;;3.35;100.00;104121.41;5101320;27;19931;-76
2022/01/13 12:35:31;;;;;;;;;;;;;;;3.38;100.00;104114.06;5101029;27;19971;-75
2022/01/13 12:38:00;;;;;;;;;;;;;;;3.41;100.00;104114.44;5083158;27;20469;-74
2022/01/13 12:40:25;;;;;;;;;;;;;;;3.43;100.00;104113.84;5105211;28;20056;-73
2022/01/13 12:42:52;;;;;;;;;;;;;;;3.47;100.00;104104.91;5104295;27;20420;-73
2022/01/13 12:45:29;;;;;;;;;;;;;;;3.48;100.00;104097.44;5102995;28;20022;-74
2022/01/13 12:47:59;;;;;;;;;;;;;;;3.54;100.00;104093.75;5117402;27;20107;-74